createdAt,value
2019-05-22T00:00:23.736Z,5.50
2019-05-22T00:02:54.940Z,3.80
2019-05-22T00:05:31.774Z,4.27
2019-05-22T00:08:05.227Z,4.43
2019-05-22T00:10:38.609Z,4.83
2019-05-22T00:13:14.162Z,4.22
2019-05-22T00:15:48.415Z,4.80
2019-05-22T00:18:19.614Z,4.23
2019-05-22T00:20:51.484Z,5.47
2019-05-22T00:23:22.603Z,4.47
2019-05-22T00:25:54.686Z,4.75
2019-05-22T00:28:27.043Z,4.27
2019-05-22T00:30:59.220Z,4.70
2019-05-22T00:33:31.340Z,4.43
2019-05-22T00:36:02.414Z,4.70
2019-05-22T00:38:34.088Z,4.73
2019-05-22T00:41:10.737Z,4.93
2019-05-22T00:43:44.624Z,4.87
2019-05-22T00:46:20.561Z,5.07
2019-05-22T00:48:54.506Z,4.28
2019-05-22T00:51:41.054Z,5.97
2019-05-22T00:54:22.025Z,4.73
2019-05-22T00:57:03.947Z,5.60
2019-05-22T00:59:37.852Z,5.57
2019-05-22T01:02:12.588Z,4.33
2019-05-22T01:04:46.734Z,4.55
2019-05-22T01:07:17.862Z,6.17
2019-05-22T01:09:52.207Z,5.03
2019-05-22T01:12:32.014Z,6.00
2019-05-22T01:15:08.371Z,5.07
2019-05-22T01:17:41.601Z,4.48
2019-05-22T01:20:16.606Z,5.10
2019-05-22T01:22:51.518Z,5.73
2019-05-22T01:25:22.863Z,4.17
2019-05-22T01:27:55.666Z,5.17
2019-05-22T01:30:34.981Z,4.00
2019-05-22T01:33:10.890Z,4.30
2019-05-22T01:35:49.453Z,4.90
2019-05-22T01:38:21.194Z,5.67
2019-05-22T01:40:57.679Z,4.67
2019-05-22T01:43:30.416Z,4.60
2019-05-22T01:46:03.313Z,6.50
2019-05-22T01:48:39.245Z,5.03
2019-05-22T01:51:11.931Z,4.50
2019-05-22T01:53:43.897Z,5.30
2019-05-22T01:56:16.929Z,5.12
2019-05-22T01:58:49.886Z,5.20
2019-05-22T02:01:24.473Z,5.83
2019-05-22T02:03:56.924Z,4.62
2019-05-22T02:06:28.509Z,4.73
2019-05-22T02:09:24.003Z,5.03
2019-05-22T02:12:08.032Z,5.37
2019-05-22T02:14:43.821Z,5.50
2019-05-22T02:17:15.737Z,4.20
2019-05-22T02:19:48.374Z,5.40
2019-05-22T02:22:20.064Z,5.90
2019-05-22T02:24:52.051Z,4.77
2019-05-22T02:27:24.202Z,5.03
2019-05-22T02:29:56.160Z,5.37
2019-05-22T02:32:29.355Z,5.58
2019-05-22T02:35:01.902Z,5.67
2019-05-22T02:37:34.735Z,5.47
2019-05-22T02:40:09.194Z,5.20
2019-05-22T02:42:40.786Z,5.72
2019-05-22T02:45:13.303Z,5.40
2019-05-22T02:47:45.558Z,5.53
2019-05-22T02:50:18.315Z,4.83
2019-05-22T02:52:50.271Z,6.03
2019-05-22T02:55:21.913Z,5.67
2019-05-22T02:57:53.507Z,5.17
2019-05-22T03:00:26.962Z,4.70
2019-05-22T03:02:58.604Z,5.23
2019-05-22T03:05:31.302Z,5.04
2019-05-22T03:08:02.481Z,6.23
2019-05-22T03:10:34.931Z,4.57
2019-05-22T03:13:08.623Z,5.10
2019-05-22T03:15:41.113Z,5.22
2019-05-22T03:18:14.054Z,4.83
2019-05-22T03:20:45.271Z,5.28
2019-05-22T03:23:37.885Z,5.17
2019-05-22T03:26:10.601Z,5.57
2019-05-22T03:28:42.995Z,5.80
2019-05-22T03:31:16.000Z,5.63
2019-05-22T03:33:47.413Z,5.30
2019-05-22T03:36:21.206Z,4.67
2019-05-22T03:38:52.989Z,6.03
2019-05-22T03:41:25.036Z,5.37
2019-05-22T03:43:58.456Z,5.37
2019-05-22T03:46:43.850Z,5.60
2019-05-22T03:49:30.079Z,6.00
2019-05-22T03:51:53.625Z,4.80
2019-05-22T03:54:26.434Z,5.07
2019-05-22T03:56:57.844Z,5.23
2019-05-22T03:59:28.913Z,5.23
2019-05-22T04:02:02.336Z,4.93
2019-05-22T04:04:39.411Z,5.53
2019-05-22T04:07:23.761Z,5.92
2019-05-22T04:09:55.188Z,4.85
2019-05-22T04:12:27.447Z,5.00
2019-05-22T04:14:58.888Z,4.73
2019-05-22T04:17:31.497Z,5.62
2019-05-22T04:20:03.854Z,5.20
2019-05-22T04:22:35.081Z,4.93
2019-05-22T04:25:08.236Z,4.87
2019-05-22T04:27:41.489Z,5.47
2019-05-22T04:30:14.466Z,5.33
2019-05-22T04:32:46.391Z,6.10
2019-05-22T04:35:20.563Z,5.47
2019-05-22T04:37:52.780Z,5.17
2019-05-22T04:40:56.830Z,6.07
2019-05-22T04:43:32.633Z,5.17
2019-05-22T04:46:06.400Z,6.20
2019-05-22T04:48:38.549Z,5.20
2019-05-22T04:51:31.130Z,5.37
2019-05-22T04:54:02.360Z,6.07
2019-05-22T04:56:33.622Z,5.93
2019-05-22T04:59:05.436Z,5.97
2019-05-22T05:01:37.451Z,5.28
2019-05-22T05:04:08.782Z,5.10
2019-05-22T05:06:41.411Z,5.23
2019-05-22T05:09:14.843Z,5.10
2019-05-22T05:11:46.406Z,5.00
2019-05-22T05:14:17.784Z,4.80
2019-05-22T05:16:49.167Z,5.50
2019-05-22T05:19:20.448Z,6.00
2019-05-22T05:21:51.836Z,5.67
2019-05-22T05:24:23.253Z,5.20
2019-05-22T05:26:55.575Z,5.97
2019-05-22T05:29:31.105Z,5.20
2019-05-22T05:32:02.954Z,5.85
2019-05-22T05:34:48.645Z,5.33
2019-05-22T05:37:23.038Z,6.27
2019-05-22T05:40:39.317Z,5.47
2019-05-22T05:43:14.343Z,5.30
2019-05-22T05:45:48.762Z,5.78
2019-05-22T05:48:23.450Z,5.43
2019-05-22T05:51:27.422Z,5.53
2019-05-22T05:54:03.009Z,4.83
2019-05-22T05:56:35.707Z,4.80
2019-05-22T05:59:09.296Z,5.10
2019-05-22T06:01:44.882Z,5.00
2019-05-22T06:04:38.140Z,4.95
2019-05-22T06:07:22.197Z,4.92
2019-05-22T06:10:53.836Z,5.08
2019-05-22T06:13:25.314Z,5.10
2019-05-22T06:17:04.532Z,4.43
2019-05-22T06:19:37.869Z,4.95
2019-05-22T06:22:10.204Z,5.40
2019-05-22T06:25:04.295Z,4.87
2019-05-22T06:27:44.455Z,4.70
2019-05-22T06:30:19.274Z,5.60
2019-05-22T06:33:39.759Z,4.53
2019-05-22T06:36:16.600Z,4.72
2019-05-22T06:39:07.703Z,4.80
2019-05-22T06:41:40.987Z,5.00
2019-05-22T06:44:46.375Z,5.00
2019-05-22T06:47:25.902Z,4.33
2019-05-22T06:49:58.525Z,5.47
2019-05-22T06:52:30.106Z,5.17
2019-05-22T06:55:02.118Z,5.77
2019-05-22T06:57:34.464Z,3.87
2019-05-22T07:00:16.770Z,4.80
2019-05-22T07:02:48.005Z,5.23
2019-05-22T07:05:19.584Z,6.20
2019-05-22T07:07:51.137Z,5.33
2019-05-22T07:10:23.366Z,4.90
2019-05-22T07:12:54.782Z,5.85
2019-05-22T07:15:39.472Z,5.10
2019-05-22T07:18:13.672Z,5.70
2019-05-22T07:20:46.855Z,5.90
2019-05-22T07:23:22.868Z,5.57
2019-05-22T07:25:54.823Z,5.67
2019-05-22T07:28:27.874Z,4.45
2019-05-22T07:30:59.359Z,5.17
2019-05-22T07:33:31.323Z,4.92
2019-05-22T07:36:09.947Z,5.03
2019-05-22T07:38:37.251Z,4.60
2019-05-22T07:41:09.742Z,5.70
2019-05-22T07:43:42.266Z,5.36
2019-05-22T07:46:13.559Z,5.37
2019-05-22T07:48:44.642Z,5.25
2019-05-22T07:51:16.237Z,5.05
2019-05-22T07:53:47.491Z,5.43
2019-05-22T07:56:18.657Z,5.07
2019-05-22T07:58:50.035Z,5.30
2019-05-22T08:01:22.511Z,5.33
2019-05-22T08:03:55.128Z,5.27
2019-05-22T08:06:26.810Z,4.93
2019-05-22T08:09:00.064Z,4.50
2019-05-22T08:11:31.994Z,4.53
2019-05-22T08:14:03.365Z,5.20
2019-05-22T08:16:35.443Z,5.33
2019-05-22T08:19:06.531Z,4.72
2019-05-22T08:21:38.015Z,4.58
2019-05-22T08:24:10.407Z,4.10
2019-05-22T08:26:53.977Z,3.95
2019-05-22T08:29:17.142Z,3.90
2019-05-22T08:31:48.599Z,5.03
2019-05-22T08:34:20.020Z,4.47
2019-05-22T08:36:51.347Z,3.83
2019-05-22T08:39:23.053Z,4.20
2019-05-22T08:41:54.733Z,3.07
2019-05-22T08:44:26.545Z,4.10
2019-05-22T08:46:57.988Z,4.00
2019-05-22T08:49:29.323Z,3.50
2019-05-22T08:52:00.885Z,3.50
2019-05-22T08:54:33.655Z,3.10
2019-05-22T08:57:06.689Z,3.67
2019-05-22T08:59:37.677Z,4.47
2019-05-22T09:02:09.296Z,3.90
2019-05-22T09:04:41.535Z,3.47
2019-05-22T09:07:12.960Z,3.20
2019-05-22T09:09:44.133Z,3.67
2019-05-22T09:12:16.450Z,2.90
2019-05-22T09:14:47.820Z,3.27
2019-05-22T09:17:21.237Z,2.60
2019-05-22T09:19:52.865Z,3.70
2019-05-22T09:22:39.630Z,2.83
2019-05-22T09:24:56.776Z,2.73
2019-05-22T09:27:28.883Z,3.43
2019-05-22T09:29:59.959Z,3.37
2019-05-22T09:32:32.290Z,2.98
2019-05-22T09:35:03.869Z,2.70
2019-05-22T09:37:34.990Z,3.30
2019-05-22T09:40:06.773Z,3.17
2019-05-22T09:42:38.140Z,3.40
2019-05-22T09:45:10.120Z,3.17
2019-05-22T09:47:42.096Z,2.92
2019-05-22T09:50:14.865Z,2.80
2019-05-22T09:52:57.040Z,3.72
2019-05-22T09:55:20.856Z,2.87
2019-05-22T09:57:52.379Z,3.00
2019-05-22T10:00:23.723Z,2.97
2019-05-22T10:02:54.849Z,2.92
2019-05-22T10:05:26.163Z,3.53
2019-05-22T10:08:01.533Z,2.77
2019-05-22T10:10:33.111Z,2.57
2019-05-22T10:13:04.755Z,2.70
2019-05-22T10:15:36.244Z,2.17
2019-05-22T10:18:07.764Z,2.73
2019-05-22T10:20:39.530Z,2.73
2019-05-22T10:23:16.021Z,3.03
2019-05-22T10:25:44.814Z,2.77
2019-05-22T10:28:16.286Z,2.87
2019-05-22T10:30:47.728Z,3.70
2019-05-22T10:33:19.662Z,3.43
2019-05-22T10:35:51.406Z,3.23
2019-05-22T10:38:21.540Z,2.90
2019-05-22T10:40:52.574Z,3.08
2019-05-22T10:43:23.765Z,2.60
2019-05-22T10:45:54.839Z,2.10
2019-05-22T10:48:26.145Z,2.72
2019-05-22T10:50:57.278Z,2.37
2019-05-22T10:53:33.569Z,2.00
2019-05-22T10:56:01.442Z,2.43
2019-05-22T10:58:32.681Z,2.37
2019-05-22T11:01:03.947Z,2.10
2019-05-22T11:03:35.589Z,3.20
2019-05-22T11:06:08.023Z,2.63
2019-05-22T11:08:41.970Z,2.20
2019-05-22T11:11:13.575Z,2.75
2019-05-22T11:13:59.795Z,2.85
2019-05-22T11:16:18.164Z,2.45
2019-05-22T11:18:50.061Z,2.25
2019-05-22T11:21:21.582Z,2.00
2019-05-22T11:23:53.477Z,2.47
2019-05-22T11:26:24.592Z,1.90
2019-05-22T11:28:55.977Z,2.90
2019-05-22T11:31:27.599Z,2.00
2019-05-22T11:33:58.817Z,2.13
2019-05-22T11:36:30.057Z,2.10
2019-05-22T11:39:01.307Z,2.00
2019-05-22T11:41:33.518Z,2.07
2019-05-22T11:44:05.284Z,2.23
2019-05-22T11:46:36.648Z,2.42
2019-05-22T11:49:08.165Z,2.50
2019-05-22T11:51:39.706Z,2.72
2019-05-22T11:54:12.046Z,2.43
2019-05-22T11:56:43.214Z,2.47
2019-05-22T11:59:14.590Z,1.93
2019-05-22T12:01:46.642Z,2.20
2019-05-22T12:04:17.749Z,1.70
2019-05-22T12:06:53.588Z,1.67
2019-05-22T12:09:23.236Z,2.30
2019-05-22T12:11:54.489Z,1.80
2019-05-22T12:14:25.586Z,2.20
2019-05-22T12:16:57.571Z,1.90
2019-05-22T12:19:28.772Z,1.97
2019-05-22T12:22:00.077Z,2.27
2019-05-22T12:24:36.810Z,1.75
2019-05-22T12:27:07.647Z,2.10
2019-05-22T12:29:39.253Z,2.43
2019-05-22T12:32:10.543Z,2.27
2019-05-22T12:34:42.980Z,2.06
2019-05-22T12:37:14.227Z,2.20
2019-05-22T12:39:45.931Z,1.90
2019-05-22T12:42:17.972Z,2.50
2019-05-22T12:44:49.688Z,2.10
2019-05-22T12:47:23.055Z,2.00
2019-05-22T12:49:54.765Z,1.95
2019-05-22T12:52:25.983Z,2.00
2019-05-22T12:54:59.106Z,1.73
2019-05-22T12:57:30.820Z,1.50
2019-05-22T13:00:03.083Z,1.50
2019-05-22T13:02:36.956Z,1.97
2019-05-22T13:05:13.998Z,1.60
2019-05-22T13:07:42.601Z,2.00
2019-05-22T13:10:15.575Z,2.00
2019-05-22T13:12:46.891Z,1.87
2019-05-22T13:15:19.179Z,1.60
2019-05-22T13:17:51.255Z,1.30
2019-05-22T13:20:41.277Z,1.20
2019-05-22T13:23:01.033Z,1.30
2019-05-22T13:25:37.082Z,1.53
2019-05-22T13:28:11.553Z,1.33
2019-05-22T13:30:44.846Z,1.37
2019-05-22T13:33:19.383Z,1.63
2019-05-22T13:35:51.583Z,1.40
2019-05-22T13:38:23.650Z,1.30
2019-05-22T13:40:56.329Z,1.37
2019-05-22T13:43:28.667Z,1.50
2019-05-22T13:45:59.996Z,1.20
2019-05-22T13:48:32.402Z,1.27
2019-05-22T13:51:05.265Z,1.30
2019-05-22T13:53:36.866Z,1.30
2019-05-22T13:56:08.728Z,1.20
2019-05-22T13:58:39.975Z,1.35
2019-05-22T14:01:11.933Z,1.30
2019-05-22T14:03:43.072Z,1.10
2019-05-22T14:06:14.466Z,1.10
2019-05-22T14:08:45.534Z,1.22
2019-05-22T14:11:17.025Z,0.80
2019-05-22T14:13:49.459Z,1.10
2019-05-22T14:16:21.653Z,0.90
2019-05-22T14:18:52.841Z,1.30
2019-05-22T14:21:24.014Z,1.00
2019-05-22T14:23:55.085Z,1.20
2019-05-22T14:26:29.776Z,1.07
2019-05-22T14:28:59.622Z,1.10
2019-05-22T14:31:30.854Z,1.37
2019-05-22T14:34:02.698Z,1.23
2019-05-22T14:36:34.102Z,1.37
2019-05-22T14:39:08.297Z,1.00
2019-05-22T14:41:39.398Z,0.72
2019-05-22T14:44:10.897Z,1.13
2019-05-22T14:46:43.006Z,0.98
2019-05-22T14:49:14.103Z,1.30
2019-05-22T14:51:45.865Z,1.52
2019-05-22T14:54:19.502Z,1.83
2019-05-22T14:56:50.886Z,1.82
2019-05-22T14:59:22.237Z,1.60
2019-05-22T15:01:53.642Z,1.70
2019-05-22T15:04:25.457Z,1.80
2019-05-22T15:06:56.709Z,1.47
2019-05-22T15:09:27.880Z,1.67
2019-05-22T15:11:58.992Z,1.60
2019-05-22T15:14:30.359Z,1.50
2019-05-22T15:17:01.529Z,1.30
2019-05-22T15:19:32.981Z,1.63
2019-05-22T15:22:05.384Z,1.37
2019-05-22T15:24:36.729Z,1.87
2019-05-22T15:27:09.495Z,1.80
2019-05-22T15:29:40.491Z,2.02
2019-05-22T15:32:14.049Z,2.10
2019-05-22T15:34:46.593Z,2.10
2019-05-22T15:37:20.795Z,1.92
2019-05-22T15:39:52.869Z,1.37
2019-05-22T15:42:45.001Z,1.90
2019-05-22T15:45:19.854Z,1.70
2019-05-22T15:47:57.107Z,2.20
2019-05-22T15:50:31.968Z,2.60
2019-05-22T15:53:11.636Z,1.90
2019-05-22T15:55:44.146Z,1.80
2019-05-22T15:58:18.089Z,1.43
2019-05-22T16:00:50.431Z,1.85
2019-05-22T16:03:24.441Z,2.70
2019-05-22T16:05:56.622Z,1.67
2019-05-22T16:08:29.330Z,2.12
2019-05-22T16:11:02.923Z,2.30
2019-05-22T16:13:34.872Z,1.82
2019-05-22T16:16:09.753Z,2.15
2019-05-22T16:18:43.851Z,2.27
2019-05-22T16:21:16.953Z,1.75
2019-05-22T16:23:48.514Z,2.20
2019-05-22T16:26:19.846Z,1.80
2019-05-22T16:28:51.251Z,2.07
2019-05-22T16:31:23.764Z,1.80
2019-05-22T16:33:55.447Z,1.60
2019-05-22T16:36:26.961Z,1.60
2019-05-22T16:38:59.753Z,1.72
2019-05-22T16:41:32.435Z,1.60
2019-05-22T16:44:04.659Z,1.57
2019-05-22T16:46:35.836Z,1.47
2019-05-22T16:49:07.652Z,1.47
2019-05-22T16:51:39.177Z,1.40
2019-05-22T16:54:11.376Z,1.10
2019-05-22T16:56:43.265Z,1.34
2019-05-22T16:59:15.078Z,1.20
2019-05-22T17:01:58.775Z,1.17
2019-05-22T17:04:20.522Z,1.17
2019-05-22T17:06:51.997Z,1.10
2019-05-22T17:09:23.331Z,1.55
2019-05-22T17:11:55.716Z,1.12
2019-05-22T17:14:27.802Z,1.50
2019-05-22T17:16:58.870Z,1.17
2019-05-22T17:19:30.554Z,1.92
2019-05-22T17:22:02.198Z,1.70
2019-05-22T17:24:34.336Z,1.37
2019-05-22T17:27:07.022Z,1.20
2019-05-22T17:29:38.238Z,1.57
2019-05-22T17:32:11.635Z,1.30
2019-05-22T17:34:43.739Z,1.27
2019-05-22T17:37:18.235Z,1.20
2019-05-22T17:39:50.899Z,1.40
2019-05-22T17:42:24.943Z,1.23
2019-05-22T17:44:56.351Z,1.30
2019-05-22T17:47:27.812Z,1.57
2019-05-22T17:50:01.835Z,1.60
2019-05-22T17:52:34.063Z,1.55
2019-05-22T17:55:07.017Z,2.08
2019-05-22T17:57:39.636Z,1.73
2019-05-22T18:00:18.622Z,1.60
2019-05-22T18:02:49.782Z,1.83
2019-05-22T18:05:22.035Z,1.77
2019-05-22T18:07:53.222Z,2.02
2019-05-22T18:10:24.833Z,1.60
2019-05-22T18:12:56.052Z,1.60
2019-05-22T18:15:27.307Z,1.57
2019-05-22T18:17:59.368Z,2.30
2019-05-22T18:20:42.297Z,1.70
2019-05-22T18:23:03.875Z,2.20
2019-05-22T18:25:35.389Z,2.03
2019-05-22T18:28:08.531Z,1.77
2019-05-22T18:30:41.666Z,1.80
2019-05-22T18:33:14.457Z,2.40
2019-05-22T18:35:45.921Z,1.90
2019-05-22T18:38:17.157Z,1.40
2019-05-22T18:40:48.460Z,1.37
2019-05-22T18:43:22.881Z,2.17
2019-05-22T18:45:53.037Z,2.57
2019-05-22T18:48:24.208Z,1.90
2019-05-22T18:50:55.382Z,1.45
2019-05-22T18:53:27.132Z,2.50
2019-05-22T18:55:58.392Z,2.30
2019-05-22T18:58:29.824Z,1.73
2019-05-22T19:01:01.126Z,1.57
2019-05-22T19:03:32.715Z,2.03
2019-05-22T19:06:05.057Z,2.13
2019-05-22T19:08:36.356Z,2.03
2019-05-22T19:11:07.960Z,2.27
2019-05-22T19:13:39.193Z,1.80
2019-05-22T19:16:11.967Z,1.57
2019-05-22T19:18:43.510Z,1.60
2019-05-22T19:21:14.654Z,2.13
2019-05-22T19:23:46.055Z,2.00
2019-05-22T19:26:17.162Z,2.17
2019-05-22T19:28:48.886Z,2.08
2019-05-22T19:31:20.065Z,2.10
2019-05-22T19:33:51.135Z,2.03
2019-05-22T19:36:22.357Z,1.87
2019-05-22T19:38:53.872Z,2.07
2019-05-22T19:41:25.317Z,2.47
2019-05-22T19:43:57.012Z,2.30
2019-05-22T19:46:28.310Z,2.57
2019-05-22T19:49:00.372Z,2.10
2019-05-22T19:51:32.826Z,1.90
2019-05-22T19:54:04.423Z,1.93
2019-05-22T19:56:36.962Z,2.33
2019-05-22T19:59:09.589Z,1.73
2019-05-22T20:01:41.021Z,2.60
2019-05-22T20:04:14.084Z,2.93
2019-05-22T20:06:45.699Z,2.77
2019-05-22T20:09:17.130Z,2.93
2019-05-22T20:11:48.730Z,3.15
2019-05-22T20:14:20.443Z,2.72
2019-05-22T20:16:51.771Z,3.17
2019-05-22T20:19:22.846Z,2.40
2019-05-22T20:21:55.008Z,3.10
2019-05-22T20:24:26.261Z,2.33
2019-05-22T20:26:57.568Z,2.47
2019-05-22T20:29:29.258Z,2.10
2019-05-22T20:32:00.386Z,2.33
2019-05-22T20:34:31.795Z,2.20
2019-05-22T20:37:03.321Z,1.90
2019-05-22T20:39:36.145Z,2.10
2019-05-22T20:42:07.671Z,2.87
2019-05-22T20:44:39.881Z,1.83
2019-05-22T20:47:13.882Z,1.83
2019-05-22T20:49:47.915Z,2.67
2019-05-22T20:52:21.649Z,1.83
2019-05-22T20:54:53.766Z,2.37
2019-05-22T20:57:26.646Z,2.00
2019-05-22T20:59:58.055Z,2.40
2019-05-22T21:02:29.983Z,2.50
2019-05-22T21:05:01.556Z,2.20
2019-05-22T21:07:36.929Z,2.58
2019-05-22T21:10:09.143Z,2.10
2019-05-22T21:12:40.958Z,2.23
2019-05-22T21:15:12.717Z,2.30
2019-05-22T21:17:45.739Z,2.62
2019-05-22T21:20:18.560Z,2.57
2019-05-22T21:22:49.884Z,2.27
2019-05-22T21:25:22.031Z,2.37
2019-05-22T21:27:53.422Z,2.43
2019-05-22T21:30:26.049Z,1.73
2019-05-22T21:32:57.584Z,2.27
2019-05-22T21:35:29.870Z,2.35
2019-05-22T21:38:02.215Z,1.77
2019-05-22T21:40:33.617Z,1.93
2019-05-22T21:43:05.841Z,1.90
2019-05-22T21:45:37.845Z,1.90
2019-05-22T21:48:09.229Z,2.30
2019-05-22T21:50:41.281Z,2.40
2019-05-22T21:53:13.733Z,2.10
2019-05-22T21:55:46.865Z,2.08
2019-05-22T21:58:19.584Z,2.00
2019-05-22T22:01:13.530Z,2.67
2019-05-22T22:03:47.130Z,2.67
2019-05-22T22:06:19.417Z,2.00
2019-05-22T22:08:50.885Z,1.80
2019-05-22T22:11:25.909Z,2.07
2019-05-22T22:13:57.032Z,2.22
2019-05-22T22:16:28.071Z,2.30
2019-05-22T22:19:00.812Z,2.12
2019-05-22T22:21:31.845Z,1.93
2019-05-22T22:24:03.021Z,2.05
2019-05-22T22:26:34.608Z,2.13
2019-05-22T22:29:06.120Z,2.27
2019-05-22T22:31:39.383Z,2.30
2019-05-22T22:34:29.315Z,1.70
2019-05-22T22:37:01.255Z,1.62
2019-05-22T22:39:34.674Z,2.50
2019-05-22T22:42:07.577Z,2.17
2019-05-22T22:44:38.727Z,1.80
2019-05-22T22:47:18.326Z,2.07
2019-05-22T22:49:49.754Z,1.77
2019-05-22T22:52:20.787Z,2.07
2019-05-22T22:54:52.545Z,2.23
2019-05-22T22:57:23.950Z,1.77
2019-05-22T22:59:55.231Z,2.13
2019-05-22T23:02:30.861Z,2.40
2019-05-22T23:05:03.189Z,2.35
2019-05-22T23:07:36.556Z,2.30
2019-05-22T23:10:11.815Z,1.73
2019-05-22T23:12:44.913Z,2.12
2019-05-22T23:15:19.046Z,2.67
2019-05-22T23:17:50.626Z,2.33
2019-05-22T23:20:19.746Z,2.77
2019-05-22T23:22:49.371Z,2.45
2019-05-22T23:25:21.224Z,2.00
2019-05-22T23:27:52.626Z,2.40
2019-05-22T23:30:23.895Z,1.83
2019-05-22T23:32:55.191Z,2.37
2019-05-22T23:35:26.529Z,2.42
2019-05-22T23:37:59.263Z,2.07
2019-05-22T23:40:35.294Z,2.83
2019-05-22T23:43:08.746Z,2.13
2019-05-22T23:45:40.315Z,2.40
2019-05-22T23:48:14.452Z,2.43
2019-05-22T23:50:47.241Z,2.50
2019-05-22T23:53:20.736Z,2.15
2019-05-22T23:55:51.894Z,2.30
2019-05-22T23:58:25.476Z,2.10
